sensor_id;sensor_type;location;lat;lon;timestamp;pressure;altitude;pressure_sealevel;temperature;humidity
34328;BME280;20588;48.840;10.064;2023-07-22T00:01:12;96437.50;;;11.14;100.00
34328;BME280;20588;48.840;10.064;2023-07-22T00:03:38;96429.22;;;11.12;100.00
34328;BME280;20588;48.840;10.064;2023-07-22T00:06:08;96424.28;;;11.10;100.00
34328;BME280;20588;48.840;10.064;2023-07-22T00:08:36;96439.16;;;11.08;100.00
34328;BME280;20588;48.840;10.064;2023-07-22T00:11:03;96439.34;;;11.07;100.00
34328;BME280;20588;48.840;10.064;2023-07-22T00:13:30;96438.44;;;11.01;100.00
34328;BME280;20588;48.840;10.064;2023-07-22T00:15:57;96443.00;;;10.99;100.00
34328;BME280;20588;48.840;10.064;2023-07-22T00:18:27;96450.34;;;10.95;100.00
34328;BME280;20588;48.840;10.064;2023-07-22T00:20:54;96449.00;;;10.93;100.00
34328;BME280;20588;48.840;10.064;2023-07-22T00:23:20;96454.38;;;10.91;100.00
34328;BME280;20588;48.840;10.064;2023-07-22T00:25:46;96461.28;;;10.91;100.00
34328;BME280;20588;48.840;10.064;2023-07-22T00:28:13;96459.16;;;10.88;100.00
34328;BME280;20588;48.840;10.064;2023-07-22T00:30:39;96457.59;;;10.87;100.00
34328;BME280;20588;48.840;10.064;2023-07-22T00:33:05;96457.00;;;10.85;100.00
34328;BME280;20588;48.840;10.064;2023-07-22T00:35:32;96455.06;;;10.80;100.00
34328;BME280;20588;48.840;10.064;2023-07-22T00:37:58;96452.13;;;10.77;100.00
34328;BME280;20588;48.840;10.064;2023-07-22T00:40:25;96458.28;;;10.76;100.00
34328;BME280;20588;48.840;10.064;2023-07-22T00:42:51;96460.84;;;10.76;100.00
34328;BME280;20588;48.840;10.064;2023-07-22T00:45:17;96450.75;;;10.74;100.00
34328;BME280;20588;48.840;10.064;2023-07-22T00:47:44;96454.13;;;10.75;100.00
34328;BME280;20588;48.840;10.064;2023-07-22T00:50:11;96454.56;;;10.72;100.00
34328;BME280;20588;48.840;10.064;2023-07-22T00:52:38;96446.84;;;10.72;100.00
34328;BME280;20588;48.840;10.064;2023-07-22T00:55:05;96446.97;;;10.77;100.00
34328;BME280;20588;48.840;10.064;2023-07-22T00:57:31;96446.00;;;10.78;100.00
34328;BME280;20588;48.840;10.064;2023-07-22T00:59:57;96446.00;;;10.78;100.00
34328;BME280;20588;48.840;10.064;2023-07-22T01:02:24;96440.47;;;10.74;100.00
34328;BME280;20588;48.840;10.064;2023-07-22T01:04:50;96442.25;;;10.74;100.00
34328;BME280;20588;48.840;10.064;2023-07-22T01:07:18;96432.53;;;10.76;100.00
34328;BME280;20588;48.840;10.064;2023-07-22T01:09:44;96433.75;;;10.73;100.00
34328;BME280;20588;48.840;10.064;2023-07-22T01:12:11;96430.38;;;10.73;100.00
34328;BME280;20588;48.840;10.064;2023-07-22T01:14:41;96436.13;;;10.75;100.00
34328;BME280;20588;48.840;10.064;2023-07-22T01:17:09;96440.09;;;10.71;100.00
34328;BME280;20588;48.840;10.064;2023-07-22T01:19:36;96441.47;;;10.73;100.00
34328;BME280;20588;48.840;10.064;2023-07-22T01:22:06;96432.53;;;10.76;100.00
34328;BME280;20588;48.840;10.064;2023-07-22T01:24:34;96431.53;;;10.77;100.00
34328;BME280;20588;48.840;10.064;2023-07-22T01:27:00;96438.41;;;10.83;100.00
34328;BME280;20588;48.840;10.064;2023-07-22T01:29:27;96434.19;;;10.88;100.00
34328;BME280;20588;48.840;10.064;2023-07-22T01:31:54;96430.41;;;10.91;100.00
34328;BME280;20588;48.840;10.064;2023-07-22T01:34:21;96436.56;;;10.90;100.00
34328;BME280;20588;48.840;10.064;2023-07-22T01:36:48;96430.19;;;10.92;100.00
34328;BME280;20588;48.840;10.064;2023-07-22T01:39:15;96425.84;;;10.93;100.00
34328;BME280;20588;48.840;10.064;2023-07-22T01:41:42;96429.75;;;10.95;100.00
34328;BME280;20588;48.840;10.064;2023-07-22T01:44:09;96427.78;;;10.98;100.00
34328;BME280;20588;48.840;10.064;2023-07-22T01:46:35;96425.97;;;10.98;100.00
34328;BME280;20588;48.840;10.064;2023-07-22T01:49:09;96417.25;;;10.99;100.00
34328;BME280;20588;48.840;10.064;2023-07-22T01:51:36;96430.34;;;10.98;100.00
34328;BME280;20588;48.840;10.064;2023-07-22T01:54:06;96420.53;;;10.88;100.00
34328;BME280;20588;48.840;10.064;2023-07-22T01:56:32;96421.53;;;10.87;100.00
34328;BME280;20588;48.840;10.064;2023-07-22T01:58:59;96428.25;;;10.88;100.00
34328;BME280;20588;48.840;10.064;2023-07-22T02:01:25;96421.88;;;10.90;100.00
34328;BME280;20588;48.840;10.064;2023-07-22T02:03:51;96420.69;;;10.93;100.00
34328;BME280;20588;48.840;10.064;2023-07-22T02:06:17;96424.66;;;10.89;100.00
34328;BME280;20588;48.840;10.064;2023-07-22T02:08:43;96431.03;;;10.86;100.00
34328;BME280;20588;48.840;10.064;2023-07-22T02:11:09;96433.25;;;10.83;100.00
34328;BME280;20588;48.840;10.064;2023-07-22T02:13:36;96430.69;;;10.83;100.00
34328;BME280;20588;48.840;10.064;2023-07-22T02:16:03;96427.03;;;10.90;100.00
34328;BME280;20588;48.840;10.064;2023-07-22T02:18:29;96426.69;;;11.05;100.00
34328;BME280;20588;48.840;10.064;2023-07-22T02:20:56;96431.69;;;11.00;100.00
34328;BME280;20588;48.840;10.064;2023-07-22T02:23:23;96429.56;;;10.97;100.00
34328;BME280;20588;48.840;10.064;2023-07-22T02:25:53;96430.19;;;10.92;100.00
34328;BME280;20588;48.840;10.064;2023-07-22T02:28:20;96422.09;;;10.89;100.00
34328;BME280;20588;48.840;10.064;2023-07-22T02:30:52;96423.31;;;10.86;100.00
34328;BME280;20588;48.840;10.064;2023-07-22T02:33:19;96413.66;;;10.82;100.00
34328;BME280;20588;48.840;10.064;2023-07-22T02:35:46;96413.28;;;10.78;100.00
34328;BME280;20588;48.840;10.064;2023-07-22T02:38:12;96421.22;;;10.77;100.00
34328;BME280;20588;48.840;10.064;2023-07-22T02:40:40;96423.03;;;10.76;100.00
34328;BME280;20588;48.840;10.064;2023-07-22T02:43:06;96418.09;;;10.75;100.00
34328;BME280;20588;48.840;10.064;2023-07-22T02:45:33;96428.41;;;10.75;100.00
34328;BME280;20588;48.840;10.064;2023-07-22T02:47:59;96426.81;;;10.74;100.00
34328;BME280;20588;48.840;10.064;2023-07-22T02:50:26;96428.03;;;10.71;100.00
34328;BME280;20588;48.840;10.064;2023-07-22T02:52:52;96430.59;;;10.71;100.00
34328;BME280;20588;48.840;10.064;2023-07-22T02:55:19;96433.38;;;10.70;100.00
34328;BME280;20588;48.840;10.064;2023-07-22T02:57:46;96434.41;;;10.69;100.00
34328;BME280;20588;48.840;10.064;2023-07-22T03:00:14;96435.16;;;10.69;100.00
34328;BME280;20588;48.840;10.064;2023-07-22T03:02:49;96438.16;;;10.66;100.00
34328;BME280;20588;48.840;10.064;2023-07-22T03:05:16;96439.38;;;10.64;100.00
34328;BME280;20588;48.840;10.064;2023-07-22T03:07:42;96444.94;;;10.61;100.00
34328;BME280;20588;48.840;10.064;2023-07-22T03:10:09;96439.44;;;10.57;100.00
34328;BME280;20588;48.840;10.064;2023-07-22T03:12:35;96442.63;;;10.53;100.00
34328;BME280;20588;48.840;10.064;2023-07-22T03:15:02;96443.84;;;10.50;100.00
34328;BME280;20588;48.840;10.064;2023-07-22T03:17:29;96457.72;;;10.49;100.00
34328;BME280;20588;48.840;10.064;2023-07-22T03:19:56;96450.66;;;10.45;100.00
34328;BME280;20588;48.840;10.064;2023-07-22T03:22:22;96450.66;;;10.45;100.00
34328;BME280;20588;48.840;10.064;2023-07-22T03:24:48;96453.44;;;10.43;100.00
34328;BME280;20588;48.840;10.064;2023-07-22T03:27:15;96456.22;;;10.42;100.00
34328;BME280;20588;48.840;10.064;2023-07-22T03:29:43;96458.78;;;10.42;100.00
34328;BME280;20588;48.840;10.064;2023-07-22T03:32:09;96449.47;;;10.41;100.00
34328;BME280;20588;48.840;10.064;2023-07-22T03:34:35;96454.06;;;10.39;100.00
34328;BME280;20588;48.840;10.064;2023-07-22T03:37:01;96460.38;;;10.36;100.00
34328;BME280;20588;48.840;10.064;2023-07-22T03:39:27;96453.69;;;10.35;100.00
34328;BME280;20588;48.840;10.064;2023-07-22T03:41:53;96448.75;;;10.34;100.00
34328;BME280;20588;48.840;10.064;2023-07-22T03:44:19;96451.53;;;10.32;100.00
34328;BME280;20588;48.840;10.064;2023-07-22T03:46:45;96450.53;;;10.33;100.00
34328;BME280;20588;48.840;10.064;2023-07-22T03:49:11;96445.16;;;10.35;100.00
34328;BME280;20588;48.840;10.064;2023-07-22T03:51:38;96446.97;;;10.34;100.00
34328;BME280;20588;48.840;10.064;2023-07-22T03:54:04;96449.53;;;10.34;100.00
34328;BME280;20588;48.840;10.064;2023-07-22T03:56:30;96444.41;;;10.34;100.00
34328;BME280;20588;48.840;10.064;2023-07-22T03:58:56;96445.97;;;10.35;100.00
34328;BME280;20588;48.840;10.064;2023-07-22T04:01:22;96443.19;;;10.37;100.00
34328;BME280;20588;48.840;10.064;2023-07-22T04:03:48;96447.09;;;10.39;100.00
34328;BME280;20588;48.840;10.064;2023-07-22T04:06:14;96446.91;;;10.41;100.00
34328;BME280;20588;48.840;10.064;2023-07-22T04:08:40;96436.97;;;10.44;100.00
34328;BME280;20588;48.840;10.064;2023-07-22T04:11:06;96438.34;;;10.47;100.00
34328;BME280;20588;48.840;10.064;2023-07-22T04:13:32;96439.50;;;10.51;100.00
34328;BME280;20588;48.840;10.064;2023-07-22T04:15:58;96439.63;;;10.56;100.00
34328;BME280;20588;48.840;10.064;2023-07-22T04:18:24;96441.31;;;10.68;100.00
34328;BME280;20588;48.840;10.064;2023-07-22T04:20:56;96445.63;;;10.74;100.00
34328;BME280;20588;48.840;10.064;2023-07-22T04:23:23;96437.47;;;10.77;100.00
34328;BME280;20588;48.840;10.064;2023-07-22T04:25:49;96436.78;;;10.88;100.00
34328;BME280;20588;48.840;10.064;2023-07-22T04:28:15;96428.84;;;11.08;100.00
34328;BME280;20588;48.840;10.064;2023-07-22T04:30:41;96427.94;;;11.50;100.00
34328;BME280;20588;48.840;10.064;2023-07-22T04:33:07;96427.41;;;12.19;100.00
34328;BME280;20588;48.840;10.064;2023-07-22T04:35:38;96423.88;;;13.01;100.00
34328;BME280;20588;48.840;10.064;2023-07-22T04:38:06;96417.59;;;13.92;100.00
34328;BME280;20588;48.840;10.064;2023-07-22T04:40:32;96420.31;;;14.80;100.00
34328;BME280;20588;48.840;10.064;2023-07-22T04:42:58;96415.00;;;15.51;100.00
34328;BME280;20588;48.840;10.064;2023-07-22T04:45:25;96423.44;;;15.63;95.72
34328;BME280;20588;48.840;10.064;2023-07-22T04:47:51;96418.06;;;15.48;93.76
34328;BME280;20588;48.840;10.064;2023-07-22T04:50:17;96433.13;;;15.30;94.15
34328;BME280;20588;48.840;10.064;2023-07-22T04:52:46;96431.19;;;14.99;94.37
34328;BME280;20588;48.840;10.064;2023-07-22T04:55:13;96425.66;;;14.74;95.75
34328;BME280;20588;48.840;10.064;2023-07-22T04:57:40;96435.72;;;14.54;97.42
34328;BME280;20588;48.840;10.064;2023-07-22T05:00:08;96437.91;;;14.45;98.03
34328;BME280;20588;48.840;10.064;2023-07-22T05:02:45;96426.94;;;14.38;98.99
34328;BME280;20588;48.840;10.064;2023-07-22T05:05:15;96428.00;;;14.25;100.00
34328;BME280;20588;48.840;10.064;2023-07-22T05:07:42;96428.16;;;14.19;100.00
34328;BME280;20588;48.840;10.064;2023-07-22T05:10:09;96434.75;;;14.10;100.00
34328;BME280;20588;48.840;10.064;2023-07-22T05:12:38;96438.50;;;14.19;100.00
34328;BME280;20588;48.840;10.064;2023-07-22T05:15:05;96441.38;;;14.34;100.00
34328;BME280;20588;48.840;10.064;2023-07-22T05:17:32;96442.09;;;14.46;100.00
34328;BME280;20588;48.840;10.064;2023-07-22T05:19:58;96439.63;;;14.56;100.00
34328;BME280;20588;48.840;10.064;2023-07-22T05:22:25;96454.09;;;14.69;100.00
34328;BME280;20588;48.840;10.064;2023-07-22T05:24:51;96446.59;;;14.89;100.00
34328;BME280;20588;48.840;10.064;2023-07-22T05:27:20;96449.22;;;15.32;100.00
34328;BME280;20588;48.840;10.064;2023-07-22T05:29:46;96453.97;;;16.31;100.00
34328;BME280;20588;48.840;10.064;2023-07-22T05:32:13;96453.59;;;17.99;92.68
34328;BME280;20588;48.840;10.064;2023-07-22T05:34:39;96449.16;;;19.89;83.20
34328;BME280;20588;48.840;10.064;2023-07-22T05:37:05;96450.72;;;21.48;72.11
34328;BME280;20588;48.840;10.064;2023-07-22T05:39:31;96451.53;;;22.78;63.05
34328;BME280;20588;48.840;10.064;2023-07-22T05:41:57;96450.44;;;23.52;55.07
34328;BME280;20588;48.840;10.064;2023-07-22T05:44:23;96449.31;;;24.51;53.48
34328;BME280;20588;48.840;10.064;2023-07-22T05:46:49;96454.16;;;25.32;48.99
34328;BME280;20588;48.840;10.064;2023-07-22T05:49:15;96454.91;;;25.72;47.46
34328;BME280;20588;48.840;10.064;2023-07-22T05:51:41;96459.00;;;26.37;45.83
34328;BME280;20588;48.840;10.064;2023-07-22T05:54:07;96467.56;;;26.43;45.21
34328;BME280;20588;48.840;10.064;2023-07-22T05:56:34;96467.25;;;26.70;44.49
34328;BME280;20588;48.840;10.064;2023-07-22T05:59:00;96473.56;;;27.03;43.14
34328;BME280;20588;48.840;10.064;2023-07-22T06:01:26;96474.28;;;27.29;43.43
34328;BME280;20588;48.840;10.064;2023-07-22T06:03:52;96469.53;;;27.43;43.03
34328;BME280;20588;48.840;10.064;2023-07-22T06:06:19;96473.19;;;27.22;42.50
34328;BME280;20588;48.840;10.064;2023-07-22T06:08:45;96463.09;;;27.07;42.53
34328;BME280;20588;48.840;10.064;2023-07-22T06:11:11;96473.16;;;26.76;43.61
34328;BME280;20588;48.840;10.064;2023-07-22T06:13:37;96468.50;;;26.64;44.49
34328;BME280;20588;48.840;10.064;2023-07-22T06:16:03;96475.03;;;26.41;45.10
34328;BME280;20588;48.840;10.064;2023-07-22T06:18:30;96469.44;;;26.17;46.06
34328;BME280;20588;48.840;10.064;2023-07-22T06:20:56;96475.91;;;26.02;47.26
34328;BME280;20588;48.840;10.064;2023-07-22T06:23:22;96479.44;;;25.89;48.07
34328;BME280;20588;48.840;10.064;2023-07-22T06:25:48;96479.75;;;25.79;48.08
34328;BME280;20588;48.840;10.064;2023-07-22T06:28:14;96477.41;;;25.78;47.69
34328;BME280;20588;48.840;10.064;2023-07-22T06:30:40;96478.03;;;25.75;47.78
34328;BME280;20588;48.840;10.064;2023-07-22T06:33:06;96484.06;;;25.67;47.31
34328;BME280;20588;48.840;10.064;2023-07-22T06:35:32;96480.38;;;25.76;48.67
34328;BME280;20588;48.840;10.064;2023-07-22T06:37:58;96482.56;;;25.91;47.46
34328;BME280;20588;48.840;10.064;2023-07-22T06:40:25;96484.94;;;26.10;45.69
34328;BME280;20588;48.840;10.064;2023-07-22T06:42:51;96489.94;;;26.45;45.57
34328;BME280;20588;48.840;10.064;2023-07-22T06:45:17;96494.00;;;26.69;44.84
34328;BME280;20588;48.840;10.064;2023-07-22T06:47:43;96495.66;;;26.99;43.98
34328;BME280;20588;48.840;10.064;2023-07-22T06:50:10;96497.31;;;27.20;43.42
34328;BME280;20588;48.840;10.064;2023-07-22T06:52:36;96494.75;;;27.41;42.00
34328;BME280;20588;48.840;10.064;2023-07-22T06:55:02;96499.44;;;27.73;41.52
34328;BME280;20588;48.840;10.064;2023-07-22T06:57:29;96496.28;;;27.88;40.98
34328;BME280;20588;48.840;10.064;2023-07-22T06:59:56;96497.41;;;28.07;40.60
34328;BME280;20588;48.840;10.064;2023-07-22T07:02:22;96493.84;;;28.24;40.11
34328;BME280;20588;48.840;10.064;2023-07-22T07:04:49;96496.31;;;28.50;39.86
34328;BME280;20588;48.840;10.064;2023-07-22T07:07:16;96499.88;;;28.74;40.00
34328;BME280;20588;48.840;10.064;2023-07-22T07:09:42;96495.94;;;28.92;39.14
34328;BME280;20588;48.840;10.064;2023-07-22T07:12:08;96495.81;;;29.09;39.04
34328;BME280;20588;48.840;10.064;2023-07-22T07:14:34;96492.84;;;29.35;38.47
34328;BME280;20588;48.840;10.064;2023-07-22T07:17:01;96499.31;;;29.70;37.89
34328;BME280;20588;48.840;10.064;2023-07-22T07:19:28;96505.16;;;30.00;37.05
34328;BME280;20588;48.840;10.064;2023-07-22T07:21:54;96500.28;;;30.26;37.44
34328;BME280;20588;48.840;10.064;2023-07-22T07:24:20;96502.22;;;30.41;36.42
34328;BME280;20588;48.840;10.064;2023-07-22T07:26:46;96501.72;;;30.23;35.50
34328;BME280;20588;48.840;10.064;2023-07-22T07:29:12;96497.38;;;30.31;35.32
34328;BME280;20588;48.840;10.064;2023-07-22T07:31:39;96507.16;;;30.54;35.72
34328;BME280;20588;48.840;10.064;2023-07-22T07:34:05;96501.53;;;30.83;35.86
34328;BME280;20588;48.840;10.064;2023-07-22T07:36:33;96506.22;;;30.74;35.63
34328;BME280;20588;48.840;10.064;2023-07-22T07:38:59;96504.94;;;30.96;35.14
34328;BME280;20588;48.840;10.064;2023-07-22T07:41:25;96502.75;;;31.29;34.58
34328;BME280;20588;48.840;10.064;2023-07-22T07:43:51;96504.31;;;31.61;33.75
34328;BME280;20588;48.840;10.064;2023-07-22T07:46:23;96499.09;;;31.99;34.33
34328;BME280;20588;48.840;10.064;2023-07-22T07:48:54;96500.06;;;32.41;33.82
34328;BME280;20588;48.840;10.064;2023-07-22T07:51:22;96509.16;;;32.78;33.65
34328;BME280;20588;48.840;10.064;2023-07-22T07:53:49;96501.88;;;32.94;32.66
34328;BME280;20588;48.840;10.064;2023-07-22T07:56:17;96499.41;;;33.05;32.66
34328;BME280;20588;48.840;10.064;2023-07-22T07:58:44;96500.97;;;33.29;32.74
34328;BME280;20588;48.840;10.064;2023-07-22T08:01:11;96502.34;;;33.42;32.04
34328;BME280;20588;48.840;10.064;2023-07-22T08:03:38;96494.50;;;33.52;32.13
34328;BME280;20588;48.840;10.064;2023-07-22T08:06:04;96499.50;;;33.80;32.35
34328;BME280;20588;48.840;10.064;2023-07-22T08:08:30;96500.56;;;33.98;31.27
34328;BME280;20588;48.840;10.064;2023-07-22T08:11:07;96500.72;;;34.08;31.26
34328;BME280;20588;48.840;10.064;2023-07-22T08:13:34;96495.84;;;34.14;30.89
34328;BME280;20588;48.840;10.064;2023-07-22T08:16:02;96491.81;;;34.27;30.47
34328;BME280;20588;48.840;10.064;2023-07-22T08:18:29;96492.78;;;34.41;31.18
34328;BME280;20588;48.840;10.064;2023-07-22T08:20:57;96482.34;;;34.62;30.60
34328;BME280;20588;48.840;10.064;2023-07-22T08:23:23;96498.63;;;34.84;29.58
34328;BME280;20588;48.840;10.064;2023-07-22T08:25:49;96495.13;;;34.76;29.04
34328;BME280;20588;48.840;10.064;2023-07-22T08:28:16;96495.47;;;34.75;29.58
34328;BME280;20588;48.840;10.064;2023-07-22T08:30:43;96502.94;;;34.88;29.46
34328;BME280;20588;48.840;10.064;2023-07-22T08:33:11;96486.75;;;35.18;28.41
34328;BME280;20588;48.840;10.064;2023-07-22T08:35:40;96489.69;;;35.42;28.56
34328;BME280;20588;48.840;10.064;2023-07-22T08:38:07;96497.94;;;35.70;28.39
34328;BME280;20588;48.840;10.064;2023-07-22T08:40:35;96483.50;;;35.85;28.16
34328;BME280;20588;48.840;10.064;2023-07-22T08:43:02;96489.28;;;35.87;28.18
34328;BME280;20588;48.840;10.064;2023-07-22T08:45:31;96490.16;;;36.05;27.44
34328;BME280;20588;48.840;10.064;2023-07-22T08:47:59;96488.63;;;36.04;26.90
34328;BME280;20588;48.840;10.064;2023-07-22T08:50:29;96480.41;;;36.45;25.70
34328;BME280;20588;48.840;10.064;2023-07-22T08:52:56;96488.06;;;36.46;25.32
34328;BME280;20588;48.840;10.064;2023-07-22T08:55:24;96482.78;;;36.64;26.06
34328;BME280;20588;48.840;10.064;2023-07-22T08:57:50;96477.44;;;36.71;26.25
34328;BME280;20588;48.840;10.064;2023-07-22T09:00:17;96479.06;;;36.89;25.60
34328;BME280;20588;48.840;10.064;2023-07-22T09:02:44;96480.19;;;36.85;25.07
34328;BME280;20588;48.840;10.064;2023-07-22T09:05:11;96477.16;;;37.00;25.36
34328;BME280;20588;48.840;10.064;2023-07-22T09:07:38;96484.06;;;37.08;25.32
34328;BME280;20588;48.840;10.064;2023-07-22T09:10:07;96481.06;;;37.24;25.60
34328;BME280;20588;48.840;10.064;2023-07-22T09:12:35;96481.44;;;37.33;25.54
34328;BME280;20588;48.840;10.064;2023-07-22T09:15:15;96477.25;;;37.67;25.56
34328;BME280;20588;48.840;10.064;2023-07-22T09:17:42;96468.00;;;37.82;24.82
34328;BME280;20588;48.840;10.064;2023-07-22T09:20:08;96473.72;;;37.94;25.15
34328;BME280;20588;48.840;10.064;2023-07-22T09:22:37;96474.47;;;38.06;24.40
34328;BME280;20588;48.840;10.064;2023-07-22T09:25:18;96477.91;;;38.10;23.78
34328;BME280;20588;48.840;10.064;2023-07-22T09:27:55;96465.19;;;38.35;23.51
34328;BME280;20588;48.840;10.064;2023-07-22T09:30:30;96466.28;;;38.48;23.28
34328;BME280;20588;48.840;10.064;2023-07-22T09:33:04;96473.34;;;37.89;23.52
34328;BME280;20588;48.840;10.064;2023-07-22T09:35:50;96468.78;;;37.40;22.96
34328;BME280;20588;48.840;10.064;2023-07-22T09:38:23;96476.97;;;36.48;24.10
34328;BME280;20588;48.840;10.064;2023-07-22T09:40:50;96472.00;;;36.43;24.54
34328;BME280;20588;48.840;10.064;2023-07-22T09:43:16;96466.00;;;36.81;25.50
34328;BME280;20588;48.840;10.064;2023-07-22T09:45:47;96474.09;;;37.02;24.23
34328;BME280;20588;48.840;10.064;2023-07-22T09:48:14;96464.09;;;36.88;24.63
34328;BME280;20588;48.840;10.064;2023-07-22T09:50:40;96463.75;;;37.11;25.13
34328;BME280;20588;48.840;10.064;2023-07-22T09:53:07;96459.53;;;37.17;24.06
34328;BME280;20588;48.840;10.064;2023-07-22T09:55:33;96458.41;;;37.25;24.89
34328;BME280;20588;48.840;10.064;2023-07-22T09:58:04;96461.09;;;37.49;24.78
34328;BME280;20588;48.840;10.064;2023-07-22T10:00:48;96457.97;;;37.93;23.95
34328;BME280;20588;48.840;10.064;2023-07-22T10:03:16;96462.16;;;38.08;23.78
34328;BME280;20588;48.840;10.064;2023-07-22T10:05:46;96453.81;;;37.29;23.78
34328;BME280;20588;48.840;10.064;2023-07-22T10:08:17;96456.06;;;37.13;24.39
34328;BME280;20588;48.840;10.064;2023-07-22T10:10:45;96449.91;;;37.16;24.06
34328;BME280;20588;48.840;10.064;2023-07-22T10:13:11;96444.47;;;36.74;22.68
34328;BME280;20588;48.840;10.064;2023-07-22T10:15:37;96439.84;;;36.67;24.03
34328;BME280;20588;48.840;10.064;2023-07-22T10:18:04;96444.06;;;36.58;24.61
34328;BME280;20588;48.840;10.064;2023-07-22T10:20:34;96437.25;;;36.88;24.03
34328;BME280;20588;48.840;10.064;2023-07-22T10:23:02;96454.19;;;37.41;24.14
34328;BME280;20588;48.840;10.064;2023-07-22T10:25:30;96442.66;;;37.58;22.40
34328;BME280;20588;48.840;10.064;2023-07-22T10:27:56;96442.66;;;37.37;22.62
34328;BME280;20588;48.840;10.064;2023-07-22T10:30:22;96437.66;;;37.50;23.41
34328;BME280;20588;48.840;10.064;2023-07-22T10:32:53;96441.41;;;38.26;23.99
34328;BME280;20588;48.840;10.064;2023-07-22T10:38:14;96433.44;;;37.77;22.35
34328;BME280;20588;48.840;10.064;2023-07-22T10:40:50;96436.91;;;37.32;22.10
34328;BME280;20588;48.840;10.064;2023-07-22T10:43:18;96437.13;;;36.53;22.76
34328;BME280;20588;48.840;10.064;2023-07-22T10:45:51;96436.38;;;36.60;23.67
34328;BME280;20588;48.840;10.064;2023-07-22T10:48:19;96437.00;;;36.21;23.57
34328;BME280;20588;48.840;10.064;2023-07-22T10:50:49;96429.06;;;35.74;23.75
34328;BME280;20588;48.840;10.064;2023-07-22T11:11:58;96417.66;;;31.98;27.36
34328;BME280;20588;48.840;10.064;2023-07-22T11:14:29;96407.59;;;31.57;27.07
34328;BME280;20588;48.840;10.064;2023-07-22T11:16:57;96404.31;;;31.29;27.48
34328;BME280;20588;48.840;10.064;2023-07-22T11:19:25;96404.78;;;31.03;27.94
34328;BME280;20588;48.840;10.064;2023-07-22T11:21:52;96398.09;;;31.40;28.47
34328;BME280;20588;48.840;10.064;2023-07-22T11:24:19;96393.28;;;31.81;28.08
34328;BME280;20588;48.840;10.064;2023-07-22T11:26:46;96393.28;;;31.81;27.40
34328;BME280;20588;48.840;10.064;2023-07-22T11:29:14;96384.16;;;31.63;28.09
34328;BME280;20588;48.840;10.064;2023-07-22T11:31:42;96381.19;;;31.68;27.71
34328;BME280;20588;48.840;10.064;2023-07-22T11:34:16;96374.00;;;31.68;28.37
34328;BME280;20588;48.840;10.064;2023-07-22T11:36:43;96377.25;;;31.62;27.37
34328;BME280;20588;48.840;10.064;2023-07-22T11:39:17;96379.91;;;31.42;27.99
34328;BME280;20588;48.840;10.064;2023-07-22T11:41:44;96386.53;;;32.59;27.93
34328;BME280;20588;48.840;10.064;2023-07-22T11:44:16;96377.69;;;33.75;26.47
34328;BME280;20588;48.840;10.064;2023-07-22T11:49:37;96365.28;;;35.36;24.27
34328;BME280;20588;48.840;10.064;2023-07-22T11:52:08;96362.31;;;35.52;25.24
34328;BME280;20588;48.840;10.064;2023-07-22T11:54:37;96366.00;;;35.94;25.26
34328;BME280;20588;48.840;10.064;2023-07-22T11:57:18;96360.06;;;36.47;24.11
34328;BME280;20588;48.840;10.064;2023-07-22T11:59:49;96346.25;;;36.45;23.53
34328;BME280;20588;48.840;10.064;2023-07-22T12:02:17;96348.00;;;35.98;23.43
34328;BME280;20588;48.840;10.064;2023-07-22T12:04:55;96343.22;;;35.60;24.82
34328;BME280;20588;48.840;10.064;2023-07-22T12:07:27;96349.56;;;36.03;24.71
34328;BME280;20588;48.840;10.064;2023-07-22T12:09:54;96344.13;;;35.89;24.28
34328;BME280;20588;48.840;10.064;2023-07-22T12:12:21;96335.31;;;35.88;24.39
34328;BME280;20588;48.840;10.064;2023-07-22T12:14:47;96337.25;;;35.23;24.92
34328;BME280;20588;48.840;10.064;2023-07-22T12:17:13;96341.56;;;35.38;25.18
34328;BME280;20588;48.840;10.064;2023-07-22T12:19:50;96336.69;;;35.54;24.74
34328;BME280;20588;48.840;10.064;2023-07-22T12:22:16;96333.75;;;35.80;25.35
34328;BME280;20588;48.840;10.064;2023-07-22T12:24:42;96331.13;;;35.87;24.43
34328;BME280;20588;48.840;10.064;2023-07-22T12:27:08;96332.06;;;36.37;24.62
34328;BME280;20588;48.840;10.064;2023-07-22T12:29:34;96331.69;;;36.35;24.34
34328;BME280;20588;48.840;10.064;2023-07-22T12:32:00;96322.50;;;35.50;23.92
34328;BME280;20588;48.840;10.064;2023-07-22T12:34:26;96318.69;;;34.53;25.10
34328;BME280;20588;48.840;10.064;2023-07-22T12:36:52;96318.56;;;33.77;25.62
34328;BME280;20588;48.840;10.064;2023-07-22T12:39:18;96315.53;;;33.49;26.57
34328;BME280;20588;48.840;10.064;2023-07-22T12:41:44;96318.09;;;33.97;26.96
34328;BME280;20588;48.840;10.064;2023-07-22T12:44:10;96312.47;;;34.46;26.37
34328;BME280;20588;48.840;10.064;2023-07-22T12:46:36;96311.69;;;34.86;26.20
34328;BME280;20588;48.840;10.064;2023-07-22T12:49:02;96311.69;;;34.86;25.59
34328;BME280;20588;48.840;10.064;2023-07-22T12:51:28;96311.44;;;35.01;25.92
34328;BME280;20588;48.840;10.064;2023-07-22T12:53:55;96305.66;;;34.92;26.09
34328;BME280;20588;48.840;10.064;2023-07-22T12:56:21;96310.53;;;34.83;26.45
34328;BME280;20588;48.840;10.064;2023-07-22T12:58:47;96313.72;;;34.55;26.32
34328;BME280;20588;48.840;10.064;2023-07-22T13:01:13;96306.69;;;34.81;26.74
34328;BME280;20588;48.840;10.064;2023-07-22T13:03:39;96300.97;;;34.86;25.62
34328;BME280;20588;48.840;10.064;2023-07-22T13:06:05;96302.56;;;34.90;25.39
34328;BME280;20588;48.840;10.064;2023-07-22T13:08:31;96304.63;;;35.11;26.24
34328;BME280;20588;48.840;10.064;2023-07-22T13:10:57;96303.00;;;34.99;25.84